createdAt,value
2023-02-11T00:02:33.153Z,0.69
2023-02-11T00:05:19.140Z,0.67
2023-02-11T00:08:05.029Z,0.63
2023-02-11T00:10:55.270Z,0.64
2023-02-11T00:13:42.419Z,0.55
2023-02-11T00:16:29.525Z,0.61
2023-02-11T00:19:15.589Z,0.57
2023-02-11T00:22:01.433Z,0.49
2023-02-11T00:24:47.281Z,0.48
2023-02-11T00:27:33.185Z,0.31
2023-02-11T00:30:18.952Z,0.47
2023-02-11T00:33:04.726Z,0.33
2023-02-11T00:35:51.969Z,0.23
2023-02-11T00:38:37.932Z,0.30
2023-02-11T00:41:24.859Z,0.22
2023-02-11T00:44:10.894Z,0.21
2023-02-11T00:46:56.633Z,0.21
2023-02-11T00:49:42.409Z,0.17
2023-02-11T00:52:28.417Z,0.15
2023-02-11T00:55:15.234Z,0.04
2023-02-11T00:58:01.566Z,-0.01
2023-02-11T01:00:47.526Z,0.07
2023-02-11T01:03:33.846Z,0.05
2023-02-11T01:06:19.931Z,-0.06
2023-02-11T01:09:05.779Z,0.01
2023-02-11T01:11:54.096Z,0.02
2023-02-11T01:14:39.996Z,-0.03
2023-02-11T01:17:25.662Z,-0.01
2023-02-11T01:20:21.538Z,-0.02
2023-02-11T01:23:07.609Z,-0.15
2023-02-11T01:25:54.410Z,-0.14
2023-02-11T01:28:40.294Z,-0.11
2023-02-11T01:31:26.890Z,-0.09
2023-02-11T01:34:13.320Z,-0.15
2023-02-11T01:36:59.930Z,-0.16
2023-02-11T01:39:48.183Z,-0.13
2023-02-11T01:42:34.094Z,-0.24
2023-02-11T01:45:42.408Z,-0.21
2023-02-11T01:48:40.712Z,-0.22
2023-02-11T01:51:30.996Z,-0.26
2023-02-11T01:54:38.989Z,-0.27
2023-02-11T01:57:29.331Z,-0.37
2023-02-11T02:00:36.308Z,-0.32
2023-02-11T02:03:22.827Z,-0.39
2023-02-11T02:06:26.045Z,-0.46
2023-02-11T02:09:17.719Z,-0.49
2023-02-11T02:12:04.005Z,-0.47
2023-02-11T02:14:50.378Z,-0.46
2023-02-11T02:17:50.903Z,-0.57
2023-02-11T02:20:45.899Z,-0.49
2023-02-11T02:24:09.462Z,-0.53
2023-02-11T02:27:34.199Z,-0.62
2023-02-11T02:30:39.704Z,-0.72
2023-02-11T02:33:37.972Z,-0.81
2023-02-11T02:36:30.369Z,-0.69
2023-02-11T02:39:21.691Z,-0.71
2023-02-11T02:42:08.512Z,-0.67
2023-02-11T02:44:56.254Z,-0.67
2023-02-11T02:47:42.197Z,-0.69
2023-02-11T02:50:31.722Z,-0.69
2023-02-11T02:53:52.824Z,-0.74
2023-02-11T02:56:44.867Z,-0.82
2023-02-11T02:59:55.624Z,-0.73
2023-02-11T03:03:03.304Z,-0.75
2023-02-11T03:05:58.870Z,-0.82
2023-02-11T03:08:55.626Z,-0.83
2023-02-11T03:11:41.482Z,-0.77
2023-02-11T03:14:28.823Z,-0.85
2023-02-11T03:17:15.551Z,-0.78
2023-02-11T03:20:02.603Z,-0.87
2023-02-11T03:23:26.776Z,-0.83
2023-02-11T03:26:23.761Z,-0.88
2023-02-11T03:29:17.469Z,-0.86
2023-02-11T03:32:16.275Z,-0.96
2023-02-11T03:35:11.397Z,-0.89
2023-02-11T03:38:04.845Z,-0.93
2023-02-11T03:40:50.603Z,-0.94
2023-02-11T03:43:48.314Z,-0.98
2023-02-11T03:46:37.661Z,-1.07
2023-02-11T03:49:24.785Z,-0.98
2023-02-11T03:52:12.408Z,-1.01
2023-02-11T03:55:00.598Z,-1.05
2023-02-11T03:57:47.464Z,-1.00
2023-02-11T04:00:36.730Z,-0.98
2023-02-11T04:03:22.618Z,-1.08
2023-02-11T04:06:08.427Z,-1.12
2023-02-11T04:08:54.636Z,-1.19
2023-02-11T04:11:40.584Z,-1.27
2023-02-11T04:14:26.422Z,-1.20
2023-02-11T04:17:12.810Z,-1.15
2023-02-11T04:19:58.763Z,-1.17
2023-02-11T04:22:44.577Z,-1.29
2023-02-11T04:25:30.558Z,-1.18
2023-02-11T04:28:16.369Z,-1.20
2023-02-11T04:31:02.326Z,-1.36
2023-02-11T04:33:48.077Z,-1.20
2023-02-11T04:36:33.828Z,-1.22
2023-02-11T04:39:19.699Z,-1.22
2023-02-11T04:42:05.589Z,-1.34
2023-02-11T04:44:51.389Z,-1.23
2023-02-11T04:47:38.062Z,-1.29
2023-02-11T04:50:23.921Z,-1.40
2023-02-11T04:53:09.814Z,-1.30
2023-02-11T04:55:55.650Z,-1.44
2023-02-11T04:58:41.573Z,-1.27
2023-02-11T05:01:27.674Z,-1.53
2023-02-11T05:04:13.350Z,-1.41
2023-02-11T05:06:59.267Z,-1.43
2023-02-11T05:09:45.249Z,-1.43
2023-02-11T05:12:30.980Z,-1.46
2023-02-11T05:15:16.898Z,-1.47
2023-02-11T05:18:03.133Z,-1.48
2023-02-11T05:20:49.511Z,-1.46
2023-02-11T05:23:36.599Z,-1.56
2023-02-11T05:26:22.859Z,-1.58
2023-02-11T05:29:08.815Z,-1.47
2023-02-11T05:31:54.593Z,-1.49
2023-02-11T05:34:40.288Z,-1.48
2023-02-11T05:37:26.112Z,-1.51
2023-02-11T05:40:12.059Z,-1.56
2023-02-11T05:42:58.078Z,-1.53
2023-02-11T05:45:43.876Z,-1.62
2023-02-11T05:48:30.061Z,-1.56
2023-02-11T05:51:16.051Z,-1.68
2023-02-11T05:54:01.862Z,-1.56
2023-02-11T05:56:47.670Z,-1.60
2023-02-11T05:59:33.470Z,-1.60
2023-02-11T06:02:19.266Z,-1.63
2023-02-11T06:05:05.295Z,-1.65
2023-02-11T06:07:51.826Z,-1.65
2023-02-11T06:10:38.040Z,-1.71
2023-02-11T06:13:24.348Z,-1.70
2023-02-11T06:16:10.680Z,-1.65
2023-02-11T06:18:56.568Z,-1.65
2023-02-11T06:21:44.417Z,-1.66
2023-02-11T06:24:51.395Z,-1.66
2023-02-11T06:27:37.010Z,-1.67
2023-02-11T06:30:22.837Z,-1.67
2023-02-11T06:33:08.900Z,-1.67
2023-02-11T06:35:54.651Z,-1.64
2023-02-11T06:38:40.700Z,-1.68
2023-02-11T06:41:26.543Z,-1.63
2023-02-11T06:44:12.222Z,-1.60
2023-02-11T06:46:58.223Z,-1.59
2023-02-11T06:49:44.008Z,-1.57
2023-02-11T06:52:29.908Z,-1.55
2023-02-11T06:55:15.983Z,-1.62
2023-02-11T06:58:01.786Z,-1.52
2023-02-11T07:00:47.650Z,-1.49
2023-02-11T07:03:37.705Z,-1.48
2023-02-11T07:06:27.776Z,-1.49
2023-02-11T07:09:13.729Z,-1.42
2023-02-11T07:11:59.542Z,-1.38
2023-02-11T07:14:45.665Z,-1.36
2023-02-11T07:17:31.385Z,-1.33
2023-02-11T07:20:17.351Z,-1.35
2023-02-11T07:23:04.760Z,-1.18
2023-02-11T07:25:50.967Z,-1.19
2023-02-11T07:28:38.287Z,-1.17
2023-02-11T07:31:26.742Z,-1.14
2023-02-11T07:34:12.660Z,-1.06
2023-02-11T07:36:58.709Z,-1.02
2023-02-11T07:39:44.600Z,-0.98
2023-02-11T07:42:30.469Z,-0.94
2023-02-11T07:45:16.408Z,-0.86
2023-02-11T07:48:02.196Z,-0.85
2023-02-11T07:50:50.451Z,-0.68
2023-02-11T07:53:36.705Z,-0.64
2023-02-11T07:56:23.254Z,-0.45
2023-02-11T07:59:09.397Z,-0.35
2023-02-11T08:01:55.354Z,-0.30
2023-02-11T08:04:42.052Z,-0.21
2023-02-11T08:07:29.752Z,-0.16
2023-02-11T08:10:15.886Z,-0.05
2023-02-11T08:13:01.587Z,0.00
2023-02-11T08:15:47.426Z,0.05
2023-02-11T08:18:33.922Z,0.09
2023-02-11T08:21:20.975Z,0.17
2023-02-11T08:24:07.441Z,0.28
2023-02-11T08:26:53.348Z,0.33
2023-02-11T08:29:39.245Z,0.43
2023-02-11T08:32:25.732Z,0.49
2023-02-11T08:35:12.599Z,0.62
2023-02-11T08:37:58.636Z,0.54
2023-02-11T08:40:44.547Z,0.68
2023-02-11T08:43:30.339Z,0.75
2023-02-11T08:46:18.842Z,0.84
2023-02-11T08:49:04.616Z,0.91
2023-02-11T08:51:50.387Z,1.04
2023-02-11T08:54:37.230Z,0.92
2023-02-11T08:57:23.123Z,1.19
2023-02-11T09:00:11.226Z,1.27
2023-02-11T09:02:57.406Z,1.32
2023-02-11T09:05:47.987Z,1.39
2023-02-11T09:08:36.068Z,1.50
2023-02-11T09:11:31.869Z,1.40
2023-02-11T09:14:20.660Z,1.70
2023-02-11T09:17:06.554Z,1.85
2023-02-11T09:19:52.364Z,1.90
2023-02-11T09:22:38.274Z,1.98
2023-02-11T09:25:24.056Z,2.04
2023-02-11T09:28:10.154Z,2.18
2023-02-11T09:30:56.055Z,2.19
2023-02-11T09:33:47.871Z,2.33
2023-02-11T09:36:37.651Z,2.40
2023-02-11T09:39:23.470Z,2.48
2023-02-11T09:42:25.958Z,2.53
2023-02-11T09:45:18.926Z,2.60
2023-02-11T09:48:19.214Z,2.77
2023-02-11T09:51:06.237Z,2.88
2023-02-11T09:54:28.960Z,2.92
2023-02-11T09:57:27.897Z,3.07
2023-02-11T10:00:22.056Z,3.15
2023-02-11T10:03:07.744Z,3.25
2023-02-11T10:05:56.691Z,3.30
2023-02-11T10:09:07.369Z,3.36
2023-02-11T10:12:03.637Z,3.38
2023-02-11T10:15:26.366Z,3.39
2023-02-11T10:18:46.186Z,3.52
2023-02-11T10:21:36.420Z,3.59
2023-02-11T10:24:22.446Z,3.72
2023-02-11T10:27:21.331Z,3.82
2023-02-11T10:30:17.011Z,3.92
2023-02-11T10:33:03.718Z,4.10
2023-02-11T10:35:50.024Z,4.06
2023-02-11T10:38:37.060Z,4.20
2023-02-11T10:41:28.589Z,4.30
2023-02-11T10:44:25.941Z,4.38
2023-02-11T10:47:18.668Z,4.50
2023-02-11T10:50:23.182Z,4.50
2023-02-11T10:53:13.638Z,4.50
2023-02-11T10:55:59.742Z,4.55
2023-02-11T10:58:59.522Z,4.63
2023-02-11T11:01:49.562Z,4.77
2023-02-11T11:04:37.834Z,4.74
2023-02-11T11:07:28.991Z,4.97
2023-02-11T11:10:47.010Z,5.00
2023-02-11T11:13:41.101Z,5.11
2023-02-11T11:16:36.973Z,5.18
2023-02-11T11:19:25.222Z,5.30
2023-02-11T11:22:20.502Z,5.24
2023-02-11T11:25:29.724Z,5.29
2023-02-11T11:28:27.314Z,5.34
2023-02-11T11:31:19.378Z,5.45
2023-02-11T11:34:29.804Z,5.44
2023-02-11T11:37:28.532Z,5.65
2023-02-11T11:40:18.185Z,5.75
2023-02-11T11:43:07.172Z,5.82
2023-02-11T11:45:56.065Z,5.87
2023-02-11T11:48:47.211Z,5.90
2023-02-11T11:51:34.120Z,6.00
2023-02-11T11:54:20.634Z,5.97
2023-02-11T11:57:15.164Z,6.02
2023-02-11T12:00:01.115Z,6.19
2023-02-11T12:03:25.532Z,6.17
2023-02-11T12:06:29.106Z,6.03
2023-02-11T12:09:27.053Z,6.37
2023-02-11T12:12:13.171Z,6.44
2023-02-11T12:15:34.788Z,6.01
2023-02-11T12:18:23.670Z,6.48
2023-02-11T12:21:29.500Z,6.60
2023-02-11T12:24:33.160Z,6.50
2023-02-11T12:27:56.358Z,6.52
2023-02-11T12:30:48.800Z,6.73
2023-02-11T12:33:50.352Z,6.78
2023-02-11T12:37:11.578Z,6.81
2023-02-11T12:40:15.632Z,6.86
2023-02-11T12:43:16.967Z,7.14
2023-02-11T12:46:24.839Z,7.23
2023-02-11T12:49:17.056Z,7.35
2023-02-11T12:52:55.716Z,7.27
2023-02-11T12:55:45.359Z,7.52
2023-02-11T12:58:44.646Z,7.50
2023-02-11T13:01:34.753Z,7.67
2023-02-11T13:04:36.070Z,7.68
2023-02-11T13:07:33.704Z,7.90
2023-02-11T13:10:32.277Z,7.96
2023-02-11T13:13:27.547Z,8.10
2023-02-11T13:16:23.856Z,8.25
2023-02-11T13:19:29.278Z,8.25
2023-02-11T13:22:28.673Z,8.46
2023-02-11T13:25:36.967Z,8.52
2023-02-11T13:28:50.493Z,8.60
2023-02-11T13:31:37.003Z,8.92
2023-02-11T13:34:48.079Z,8.90
2023-02-11T13:37:39.079Z,9.11
2023-02-11T13:40:29.048Z,9.33
2023-02-11T13:43:23.922Z,9.45
2023-02-11T13:46:12.472Z,9.51
2023-02-11T13:48:58.333Z,9.59
2023-02-11T13:51:44.442Z,9.79
2023-02-11T13:54:38.968Z,10.01
2023-02-11T13:57:36.503Z,11.14
2023-02-11T14:00:34.351Z,11.83
2023-02-11T14:03:44.275Z,12.19
2023-02-11T14:07:05.861Z,12.32
2023-02-11T14:09:57.370Z,12.32
2023-02-11T14:12:43.695Z,12.27
2023-02-11T14:15:39.681Z,12.01
2023-02-11T14:18:44.415Z,11.78
2023-02-11T14:21:36.315Z,11.46
2023-02-11T14:24:34.884Z,11.24
2023-02-11T14:27:38.402Z,10.90
2023-02-11T14:30:27.770Z,10.61
2023-02-11T14:33:45.797Z,10.37
2023-02-11T14:36:39.689Z,10.22
2023-02-11T14:39:32.367Z,9.96
2023-02-11T14:42:25.538Z,9.65
2023-02-11T14:45:16.775Z,9.49
2023-02-11T14:48:04.224Z,9.51
2023-02-11T14:50:54.275Z,9.35
2023-02-11T14:53:44.703Z,9.19
2023-02-11T14:56:34.609Z,9.12
2023-02-11T14:59:23.113Z,9.00
2023-02-11T15:02:30.595Z,8.74
2023-02-11T15:05:22.784Z,8.76
2023-02-11T15:08:14.911Z,8.51
2023-02-11T15:11:03.525Z,8.56
2023-02-11T15:13:50.510Z,8.42
2023-02-11T15:16:41.715Z,8.35
2023-02-11T15:19:37.879Z,8.16
2023-02-11T15:22:33.133Z,8.20
2023-02-11T15:25:20.179Z,8.05
2023-02-11T15:28:21.320Z,7.87
2023-02-11T15:31:18.063Z,7.70
2023-02-11T15:34:08.972Z,7.79
2023-02-11T15:36:55.018Z,7.76
2023-02-11T15:39:42.278Z,7.70
2023-02-11T15:42:35.794Z,7.62
2023-02-11T15:45:31.531Z,7.60
2023-02-11T15:48:22.303Z,7.54
2023-02-11T15:51:28.720Z,7.34
2023-02-11T15:54:20.968Z,7.26
2023-02-11T15:57:08.704Z,7.32
2023-02-11T15:59:56.355Z,7.29
2023-02-11T16:02:45.652Z,7.31
2023-02-11T16:05:37.193Z,7.28
2023-02-11T16:08:29.985Z,7.16
2023-02-11T16:11:26.343Z,7.18
2023-02-11T16:14:34.411Z,7.13
2023-02-11T16:17:24.777Z,6.83
2023-02-11T16:20:20.288Z,6.92
2023-02-11T16:23:07.439Z,7.01
2023-02-11T16:26:07.081Z,6.84
2023-02-11T16:28:53.237Z,6.82
2023-02-11T16:31:41.871Z,6.74
2023-02-11T16:34:28.445Z,6.63
2023-02-11T16:37:15.084Z,6.59
2023-02-11T16:40:00.861Z,6.53
2023-02-11T16:42:46.929Z,6.50
2023-02-11T16:45:37.592Z,6.28
2023-02-11T16:48:23.708Z,6.36
2023-02-11T17:13:28.959Z,4.82
2023-02-11T17:16:18.308Z,4.90
2023-02-11T17:19:04.685Z,4.96
2023-02-11T17:21:52.534Z,4.94
2023-02-11T17:24:38.714Z,4.95
2023-02-11T17:27:24.789Z,4.88
2023-02-11T17:30:11.666Z,4.82
2023-02-11T17:32:57.726Z,4.76
2023-02-11T17:35:43.561Z,4.78
2023-02-11T17:38:29.431Z,4.71
2023-02-11T17:41:16.289Z,4.67
2023-02-11T17:44:02.450Z,4.60
2023-02-11T17:46:48.719Z,4.40
2023-02-11T17:49:34.872Z,4.48
2023-02-11T17:52:21.622Z,4.41
2023-02-11T17:55:07.959Z,4.41
2023-02-11T17:57:53.920Z,4.35
2023-02-11T18:00:40.015Z,4.34
2023-02-11T18:03:26.349Z,4.28
2023-02-11T18:06:12.705Z,4.21
2023-02-11T18:08:59.842Z,4.17
2023-02-11T18:11:45.898Z,4.14
2023-02-11T18:14:32.072Z,4.15
2023-02-11T18:17:17.903Z,4.06
2023-02-11T18:20:05.017Z,4.03
2023-02-11T18:22:51.046Z,3.98
2023-02-11T18:25:37.426Z,3.99
2023-02-11T18:28:23.210Z,3.83
2023-02-11T18:31:09.549Z,3.88
2023-02-11T18:33:55.612Z,3.85
2023-02-11T18:36:41.590Z,3.71
2023-02-11T18:39:27.438Z,3.77
2023-02-11T18:42:13.817Z,3.71
2023-02-11T18:45:00.279Z,3.66
2023-02-11T18:47:45.981Z,3.61
2023-02-11T18:50:31.949Z,3.59
2023-02-11T18:53:18.126Z,3.53
2023-02-11T18:56:15.608Z,3.54
2023-02-11T18:59:01.980Z,3.56
2023-02-11T19:01:48.052Z,3.52
2023-02-11T19:04:37.311Z,3.47
2023-02-11T19:07:23.242Z,3.46
2023-02-11T19:10:10.228Z,3.31
2023-02-11T19:12:58.949Z,3.44
2023-02-11T19:15:45.977Z,3.36
2023-02-11T19:18:32.436Z,3.32
2023-02-11T19:21:20.575Z,3.28
2023-02-11T19:24:08.084Z,3.28
2023-02-11T19:26:57.895Z,3.24
2023-02-11T19:29:43.993Z,3.26
2023-02-11T19:32:30.226Z,3.22
2023-02-11T19:35:16.305Z,3.04
2023-02-11T19:38:03.770Z,3.08
2023-02-11T19:40:56.353Z,3.14
2023-02-11T19:43:43.418Z,3.03
2023-02-11T19:46:32.180Z,3.08
2023-02-11T19:49:22.922Z,2.99
2023-02-11T19:52:09.661Z,3.06
2023-02-11T19:54:55.965Z,3.03
2023-02-11T19:57:42.142Z,3.01
2023-02-11T20:00:28.464Z,2.95
2023-02-11T20:03:14.367Z,3.00
2023-02-11T20:06:00.312Z,2.95
2023-02-11T20:08:46.816Z,2.89
2023-02-11T20:11:34.347Z,2.95
2023-02-11T20:14:20.382Z,2.94
2023-02-11T20:17:06.408Z,2.92
2023-02-11T20:19:52.562Z,2.93
2023-02-11T20:22:39.534Z,2.94
2023-02-11T20:25:27.199Z,2.89
2023-02-11T20:28:14.343Z,2.92
2023-02-11T20:31:00.886Z,2.90
2023-02-11T20:33:47.462Z,2.95
2023-02-11T20:36:37.666Z,2.88
2023-02-11T20:39:24.669Z,2.91
2023-02-11T20:42:14.553Z,2.93
2023-02-11T20:45:00.802Z,2.83
2023-02-11T20:47:46.982Z,2.94
2023-02-11T20:50:34.481Z,2.88
2023-02-11T20:53:20.318Z,2.85
2023-02-11T20:56:09.122Z,3.02
2023-02-11T20:58:57.861Z,3.05
2023-02-11T21:01:46.914Z,2.99
2023-02-11T21:04:33.932Z,3.12
2023-02-11T21:07:20.413Z,3.10
2023-02-11T21:10:07.273Z,3.03
2023-02-11T21:12:53.328Z,3.16
2023-02-11T21:15:39.182Z,3.06
2023-02-11T21:18:25.274Z,3.08
2023-02-11T21:21:11.393Z,3.17
2023-02-11T21:23:58.705Z,3.20
2023-02-11T21:26:44.718Z,3.18
2023-02-11T21:29:30.689Z,3.18
2023-02-11T21:32:17.705Z,3.19
2023-02-11T21:35:03.649Z,3.20
2023-02-11T21:37:49.641Z,3.11
2023-02-11T21:40:35.505Z,3.16
2023-02-11T21:43:21.820Z,3.17
2023-02-11T21:46:09.881Z,3.23
2023-02-11T21:48:57.168Z,3.24
2023-02-11T21:51:43.005Z,3.17
2023-02-11T21:54:32.106Z,3.12
2023-02-11T21:57:18.471Z,3.24
2023-02-11T22:00:07.808Z,3.17
2023-02-11T22:02:54.296Z,3.32
2023-02-11T22:05:41.276Z,3.27
2023-02-11T22:08:27.462Z,3.23
2023-02-11T22:11:13.613Z,3.30
2023-02-11T22:13:59.897Z,3.39
2023-02-11T22:16:47.636Z,3.35
2023-02-11T22:19:34.300Z,3.22
2023-02-11T22:22:21.285Z,3.43
2023-02-11T22:25:07.695Z,3.29
2023-02-11T22:27:53.430Z,3.39
2023-02-11T22:30:39.388Z,3.35
2023-02-11T22:33:26.360Z,3.39
2023-02-11T22:36:20.826Z,3.27
2023-02-11T22:39:13.534Z,3.34
2023-02-11T22:41:59.853Z,3.25
2023-02-11T22:44:45.899Z,3.36
2023-02-11T22:47:31.892Z,3.34
2023-02-11T22:50:17.863Z,3.38
2023-02-11T22:53:04.096Z,3.34
2023-02-11T22:55:49.843Z,3.29
2023-02-11T22:58:36.957Z,3.39
2023-02-11T23:01:22.893Z,3.36
2023-02-11T23:04:11.521Z,3.14
2023-02-11T23:06:57.498Z,3.30
2023-02-11T23:09:43.464Z,3.31
2023-02-11T23:12:29.222Z,3.32
2023-02-11T23:15:15.102Z,3.33
2023-02-11T23:18:00.929Z,3.33
2023-02-11T23:20:46.800Z,3.37
2023-02-11T23:23:33.465Z,3.34
2023-02-11T23:26:19.516Z,3.30
2023-02-11T23:29:05.970Z,3.33
2023-02-11T23:31:51.950Z,3.27
2023-02-11T23:34:38.048Z,3.30
2023-02-11T23:37:23.763Z,3.30
2023-02-11T23:40:10.378Z,3.28
2023-02-11T23:42:56.373Z,3.17
2023-02-11T23:45:42.528Z,3.27
2023-02-11T23:48:28.604Z,3.23
2023-02-11T23:51:14.456Z,3.17
2023-02-11T23:54:00.729Z,3.17
2023-02-11T23:56:47.050Z,3.12
2023-02-11T23:59:32.749Z,3.18
